Time;durP1;ratioP1;P1;durP2;ratioP2;P2;SDS_P1;SDS_P2;PMS_P1;PMS_P2;Temp;Humidity;BMP_temperature;BMP_pressure;BME280_temperature;BME280_humidity;BME280_pressure;Samples;Min_cycle;Max_cycle;Signal;HPM_P1;HPM_P2
2021/09/07 00:01:31;;;;;;;1.38;1.30;;;14.20;82.50;;;;;;5072951;28;20188;-72
2021/09/07 00:03:56;;;;;;;1.55;1.45;;;14.20;83.50;;;;;;5073534;28;20183;-74
2021/09/07 00:06:22;;;;;;;4.85;1.50;;;14.10;83.10;;;;;;5069845;28;20326;-74
2021/09/07 00:08:48;;;;;;;2.42;1.90;;;14.10;83.50;;;;;;5067166;28;20182;-73
2021/09/07 00:11:17;;;;;;;1.33;1.33;;;14.10;83.70;;;;;;5066580;28;20179;-75
2021/09/07 00:13:43;;;;;;;3.17;1.40;;;14.00;83.30;;;;;;5071532;28;20209;-74
2021/09/07 00:16:10;;;;;;;2.00;1.60;;;14.00;84.00;;;;;;5069421;28;20293;-73
2021/09/07 00:18:35;;;;;;;1.63;1.60;;;14.00;83.90;;;;;;5067752;28;20183;-73
2021/09/07 00:21:02;;;;;;;2.30;2.10;;;14.00;83.70;;;;;;5074862;28;20214;-73
2021/09/07 00:23:27;;;;;;;1.77;1.65;;;13.90;84.00;;;;;;5071785;28;20936;-73
2021/09/07 00:25:53;;;;;;;2.20;2.10;;;13.90;84.00;;;;;;5074268;28;20222;-73
2021/09/07 00:28:19;;;;;;;1.88;1.83;;;13.90;83.90;;;;;;5076345;28;20210;-73
2021/09/07 00:30:45;;;;;;;2.20;2.03;;;13.90;84.40;;;;;;5071567;28;20214;-73
2021/09/07 00:33:11;;;;;;;3.17;2.22;;;13.80;84.80;;;;;;5072900;28;20771;-73
2021/09/07 00:35:37;;;;;;;2.00;1.90;;;13.80;84.50;;;;;;5063904;28;20182;-73
2021/09/07 00:38:02;;;;;;;1.90;1.80;;;13.80;84.50;;;;;;5069168;28;20186;-73
2021/09/07 00:40:28;;;;;;;2.08;1.88;;;13.80;84.60;;;;;;5069966;28;20209;-73
2021/09/07 00:42:54;;;;;;;1.48;1.48;;;13.80;84.60;;;;;;5075428;28;20707;-73
2021/09/07 00:45:20;;;;;;;2.10;1.98;;;13.70;84.70;;;;;;5071507;28;20206;-74
2021/09/07 00:47:45;;;;;;;1.48;1.42;;;13.70;85.30;;;;;;5078744;28;20174;-72
2021/09/07 00:50:13;;;;;;;3.38;1.38;;;13.70;85.30;;;;;;5063092;28;20207;-73
2021/09/07 00:52:40;;;;;;;1.50;1.40;;;13.60;85.60;;;;;;5075948;28;20177;-73
2021/09/07 00:55:07;;;;;;;1.77;1.70;;;13.60;86.20;;;;;;5068780;28;20185;-73
2021/09/07 00:57:35;;;;;;;1.75;1.65;;;13.60;86.20;;;;;;5075467;28;20242;-73
2021/09/07 01:00:06;;;;;;;1.77;1.70;;;13.50;86.60;;;;;;5065458;28;20177;-74
2021/09/07 01:02:32;;;;;;;1.85;1.75;;;13.50;86.10;;;;;;5071485;28;20186;-74
2021/09/07 01:04:58;;;;;;;2.72;1.40;;;13.50;87.00;;;;;;5071240;28;20186;-74
2021/09/07 01:07:23;;;;;;;1.70;1.60;;;13.40;87.00;;;;;;5067650;28;20740;-74
2021/09/07 01:09:49;;;;;;;1.88;1.77;;;13.40;87.30;;;;;;5067900;28;20190;-74
2021/09/07 01:12:15;;;;;;;1.65;1.65;;;13.40;87.60;;;;;;5075636;28;20261;-74
2021/09/07 01:14:42;;;;;;;2.22;2.03;;;13.40;87.30;;;;;;5071741;28;20222;-74
2021/09/07 01:17:15;;;;;;;2.97;1.98;;;13.30;87.10;;;;;;5074636;28;20827;-73
2021/09/07 01:19:42;;;;;;;2.13;1.70;;;13.30;87.30;;;;;;5062900;28;20276;-73
2021/09/07 01:22:09;;;;;;;2.22;2.15;;;13.30;87.70;;;;;;5069122;28;20210;-73
2021/09/07 01:24:35;;;;;;;1.80;1.73;;;13.30;87.70;;;;;;5069331;28;20701;-73
2021/09/07 01:27:05;;;;;;;2.22;2.05;;;13.30;88.70;;;;;;5072133;28;20606;-73
2021/09/07 01:29:35;;;;;;;1.70;1.70;;;13.20;88.80;;;;;;5071508;28;20178;-73
2021/09/07 01:32:03;;;;;;;2.13;2.03;;;13.20;88.80;;;;;;5072746;28;20269;-73
2021/09/07 01:34:29;;;;;;;2.25;2.15;;;13.20;89.30;;;;;;5066679;28;20202;-73
2021/09/07 01:36:56;;;;;;;2.35;2.25;;;13.10;89.70;;;;;;5068289;28;20176;-74
2021/09/07 01:39:23;;;;;;;2.50;2.40;;;13.10;89.60;;;;;;5072346;28;20179;-73
2021/09/07 01:41:50;;;;;;;2.60;2.40;;;13.00;90.00;;;;;;5070767;28;20183;-73
2021/09/07 01:44:17;;;;;;;6.45;2.60;;;13.00;90.30;;;;;;5070842;28;20201;-73
2021/09/07 01:46:42;;;;;;;4.00;2.95;;;13.00;90.70;;;;;;5074013;28;20576;-73
2021/09/07 01:49:11;;;;;;;1.90;1.80;;;12.90;90.80;;;;;;5070199;28;20182;-73
2021/09/07 01:51:41;;;;;;;2.95;2.63;;;12.90;90.60;;;;;;5069366;28;20198;-73
2021/09/07 01:54:08;;;;;;;3.38;2.03;;;12.90;90.90;;;;;;5068683;28;20218;-72
2021/09/07 01:56:35;;;;;;;2.78;2.58;;;12.90;91.40;;;;;;5068865;28;20182;-72
2021/09/07 01:59:01;;;;;;;2.40;2.30;;;12.90;91.20;;;;;;5071205;28;20230;-73
2021/09/07 02:01:27;;;;;;;2.42;2.22;;;12.90;91.50;;;;;;5063666;28;20183;-72
2021/09/07 02:03:53;;;;;;;2.17;2.05;;;12.90;91.90;;;;;;5070444;28;20665;-72
2021/09/07 02:06:18;;;;;;;2.47;2.30;;;12.90;91.70;;;;;;5071273;28;20179;-74
2021/09/07 02:08:44;;;;;;;2.28;1.80;;;12.80;91.90;;;;;;5059550;28;20183;-73
2021/09/07 02:11:10;;;;;;;2.75;1.80;;;12.80;91.50;;;;;;5070542;28;20690;-73
2021/09/07 02:13:35;;;;;;;1.85;1.75;;;12.80;91.90;;;;;;5072006;28;20218;-73
2021/09/07 02:16:01;;;;;;;1.75;1.65;;;12.80;92.10;;;;;;5066286;28;20921;-73
2021/09/07 02:18:27;;;;;;;1.80;1.80;;;12.80;91.80;;;;;;5070675;28;20691;-73
2021/09/07 02:20:53;;;;;;;1.73;1.63;;;12.80;92.30;;;;;;5067835;28;20267;-74
2021/09/07 02:23:18;;;;;;;2.15;1.40;;;12.70;92.80;;;;;;5064561;28;20205;-73
2021/09/07 02:25:44;;;;;;;2.05;1.95;;;12.70;93.00;;;;;;5069523;28;20187;-74
2021/09/07 02:28:11;;;;;;;2.08;1.58;;;12.70;92.30;;;;;;5069443;28;20262;-73
2021/09/07 02:30:38;;;;;;;3.50;2.10;;;12.70;92.40;;;;;;5062734;28;20210;-73
2021/09/07 02:33:04;;;;;;;1.50;1.50;;;12.70;92.80;;;;;;5076920;28;20222;-73
2021/09/07 02:35:33;;;;;;;2.75;2.03;;;12.70;92.20;;;;;;5073853;28;20183;-73
2021/09/07 02:37:59;;;;;;;3.58;2.20;;;12.70;92.90;;;;;;5073380;28;20179;-72
2021/09/07 02:40:25;;;;;;;1.90;1.85;;;12.70;92.40;;;;;;5073266;28;20218;-73
2021/09/07 02:42:51;;;;;;;2.22;2.13;;;12.70;92.50;;;;;;5075799;28;20263;-72
2021/09/07 02:45:16;;;;;;;2.55;2.35;;;12.70;92.30;;;;;;5072011;28;20174;-74
2021/09/07 02:47:42;;;;;;;2.83;2.72;;;12.70;91.90;;;;;;5075160;28;20178;-73
2021/09/07 02:50:10;;;;;;;2.78;2.67;;;12.80;92.30;;;;;;5071386;28;20236;-73
2021/09/07 02:52:36;;;;;;;2.70;2.53;;;12.80;91.90;;;;;;5071786;28;20175;-74
2021/09/07 02:55:03;;;;;;;4.35;2.58;;;12.80;91.50;;;;;;5077199;28;20188;-73
2021/09/07 02:57:29;;;;;;;2.53;2.33;;;12.80;91.80;;;;;;5067361;28;20705;-73
2021/09/07 02:59:56;;;;;;;2.17;2.10;;;12.80;92.40;;;;;;5070248;28;20286;-74
2021/09/07 03:02:22;;;;;;;2.33;2.33;;;12.80;92.50;;;;;;5068338;28;20185;-74
2021/09/07 03:04:48;;;;;;;2.45;2.38;;;12.80;91.80;;;;;;5069940;28;20174;-74
2021/09/07 03:07:14;;;;;;;2.67;2.22;;;12.80;91.70;;;;;;5069929;28;20179;-75
2021/09/07 03:09:40;;;;;;;2.63;2.53;;;12.90;91.70;;;;;;5073782;28;21010;-74
2021/09/07 03:12:06;;;;;;;2.75;2.65;;;12.90;91.50;;;;;;5075181;28;20195;-74
2021/09/07 03:14:31;;;;;;;2.90;2.70;;;12.90;91.50;;;;;;5077695;28;20237;-74
2021/09/07 03:16:57;;;;;;;2.78;2.67;;;12.90;91.60;;;;;;5071028;28;20182;-74
2021/09/07 03:19:23;;;;;;;2.97;2.83;;;12.90;91.50;;;;;;5073223;28;20182;-74
2021/09/07 03:21:49;;;;;;;3.67;2.63;;;12.90;91.40;;;;;;5072585;28;20191;-74
2021/09/07 03:24:14;;;;;;;2.47;2.38;;;12.90;91.60;;;;;;5073535;28;20253;-74
2021/09/07 03:26:40;;;;;;;2.45;2.35;;;12.90;91.50;;;;;;5073179;28;20175;-75
2021/09/07 03:29:06;;;;;;;2.40;2.25;;;12.80;91.60;;;;;;5066338;28;20183;-74
2021/09/07 03:31:32;;;;;;;4.05;2.65;;;12.80;91.60;;;;;;5070602;28;20182;-74
2021/09/07 03:33:57;;;;;;;2.45;2.35;;;12.80;91.50;;;;;;5073654;28;20211;-74
2021/09/07 03:36:24;;;;;;;4.38;3.13;;;12.80;91.90;;;;;;5073620;28;21230;-74
2021/09/07 03:38:49;;;;;;;2.28;2.15;;;12.80;91.70;;;;;;5064435;28;20573;-74
2021/09/07 03:41:15;;;;;;;2.08;1.98;;;12.80;91.60;;;;;;5077550;28;20190;-74
2021/09/07 03:43:41;;;;;;;2.03;1.92;;;12.80;91.90;;;;;;5062618;28;20191;-73
2021/09/07 03:46:06;;;;;;;3.80;2.15;;;12.70;91.70;;;;;;5071195;28;20592;-74
2021/09/07 03:48:32;;;;;;;2.45;2.25;;;12.70;92.10;;;;;;5068184;28;20252;-75
2021/09/07 03:50:58;;;;;;;2.70;2.60;;;12.70;92.40;;;;;;5073638;28;20245;-74
2021/09/07 03:53:27;;;;;;;2.45;2.25;;;12.70;92.60;;;;;;5077112;28;20214;-74
2021/09/07 03:55:53;;;;;;;2.80;2.58;;;12.70;92.60;;;;;;5069328;28;20639;-73
2021/09/07 03:58:18;;;;;;;2.70;2.42;;;12.70;92.50;;;;;;5070958;28;20564;-73
2021/09/07 04:00:44;;;;;;;2.95;2.75;;;12.60;92.50;;;;;;5072113;28;20174;-73
2021/09/07 04:03:17;;;;;;;2.88;2.75;;;12.60;92.60;;;;;;5071828;28;20181;-73
2021/09/07 04:05:43;;;;;;;2.95;2.67;;;12.60;92.00;;;;;;5074735;28;20216;-74
2021/09/07 04:08:10;;;;;;;7.75;2.78;;;12.60;92.40;;;;;;5070960;28;20183;-73
2021/09/07 04:10:36;;;;;;;3.13;2.70;;;12.60;92.40;;;;;;5077930;28;20192;-74
2021/09/07 04:13:02;;;;;;;2.25;2.15;;;12.60;92.30;;;;;;5068762;28;20211;-73
2021/09/07 04:15:27;;;;;;;1.85;1.85;;;12.60;92.60;;;;;;5071225;28;20182;-73
2021/09/07 04:17:53;;;;;;;2.13;1.95;;;12.60;92.60;;;;;;5070360;28;20183;-73
2021/09/07 04:20:19;;;;;;;2.35;2.20;;;12.60;92.50;;;;;;5068946;28;20629;-74
2021/09/07 04:22:45;;;;;;;2.75;2.38;;;12.60;92.40;;;;;;5063683;28;20205;-73
2021/09/07 04:25:11;;;;;;;2.35;2.25;;;12.60;92.10;;;;;;5071483;28;20183;-73
2021/09/07 04:27:37;;;;;;;3.85;2.03;;;12.60;92.30;;;;;;5069293;28;20183;-74
2021/09/07 04:30:05;;;;;;;2.38;2.28;;;12.60;92.10;;;;;;5067832;28;20190;-73
2021/09/07 04:32:30;;;;;;;2.05;1.95;;;12.70;92.00;;;;;;5061735;28;20175;-73
2021/09/07 04:34:56;;;;;;;2.03;1.92;;;12.70;92.40;;;;;;5067667;28;20665;-74
2021/09/07 04:37:21;;;;;;;2.50;2.28;;;12.70;92.10;;;;;;5071394;28;20669;-74
2021/09/07 04:39:50;;;;;;;2.00;1.92;;;12.70;92.10;;;;;;5066512;28;20186;-74
2021/09/07 04:42:17;;;;;;;2.00;1.90;;;12.70;92.40;;;;;;5074096;28;20176;-74
2021/09/07 04:44:43;;;;;;;2.40;2.20;;;12.70;91.90;;;;;;5065964;28;20285;-74
2021/09/07 04:47:09;;;;;;;1.77;1.67;;;12.80;92.30;;;;;;5063537;28;20188;-73
2021/09/07 04:49:35;;;;;;;1.58;1.48;;;12.80;91.90;;;;;;5072162;28;20679;-73
2021/09/07 04:52:01;;;;;;;5.35;3.08;;;12.80;91.70;;;;;;5070916;28;20186;-73
2021/09/07 04:54:26;;;;;;;3.30;3.05;;;12.80;92.00;;;;;;5067520;28;20295;-74
2021/09/07 04:56:52;;;;;;;2.45;2.10;;;12.90;91.70;;;;;;5068342;28;20183;-74
2021/09/07 04:59:18;;;;;;;2.38;2.13;;;12.90;91.90;;;;;;5066502;28;20191;-75
2021/09/07 05:01:43;;;;;;;3.88;1.75;;;12.90;91.60;;;;;;5065336;28;20171;-74
2021/09/07 05:04:09;;;;;;;1.95;1.85;;;13.00;91.30;;;;;;5071078;28;20316;-73
2021/09/07 05:06:35;;;;;;;1.88;1.77;;;13.00;91.30;;;;;;5071835;28;20595;-73
2021/09/07 05:09:01;;;;;;;1.23;1.23;;;13.10;91.30;;;;;;5071182;28;20186;-73
2021/09/07 05:11:26;;;;;;;1.55;1.50;;;13.10;91.30;;;;;;5068156;28;20178;-73
2021/09/07 05:13:52;;;;;;;1.75;1.60;;;13.10;91.10;;;;;;5067270;28;20223;-73
2021/09/07 05:16:18;;;;;;;2.28;1.92;;;13.20;91.10;;;;;;5069619;28;20210;-73
2021/09/07 05:18:43;;;;;;;1.73;1.65;;;13.20;90.80;;;;;;5070972;28;20187;-73
2021/09/07 05:21:09;;;;;;;2.08;1.88;;;13.30;90.30;;;;;;5065648;28;20182;-74
2021/09/07 05:23:37;;;;;;;2.63;1.75;;;13.30;90.10;;;;;;5071462;28;20706;-73
2021/09/07 05:26:03;;;;;;;2.10;1.92;;;13.30;90.00;;;;;;5061281;28;20191;-73
2021/09/07 05:28:29;;;;;;;2.20;1.85;;;13.40;89.40;;;;;;5064637;28;20295;-73
2021/09/07 05:30:57;;;;;;;1.80;1.70;;;13.40;89.30;;;;;;5073163;28;20264;-73
2021/09/07 05:33:24;;;;;;;2.15;1.88;;;13.50;89.40;;;;;;5066751;28;20214;-73
2021/09/07 05:35:50;;;;;;;2.05;1.92;;;13.50;89.40;;;;;;5064615;28;20171;-76
2021/09/07 05:38:15;;;;;;;2.10;2.00;;;13.60;89.20;;;;;;5069635;28;20223;-75
2021/09/07 05:40:41;;;;;;;3.38;1.92;;;13.60;89.20;;;;;;5069493;28;20179;-75
2021/09/07 05:43:07;;;;;;;2.45;2.25;;;13.60;89.10;;;;;;5070308;28;20235;-75
2021/09/07 05:45:33;;;;;;;2.55;2.20;;;13.70;89.00;;;;;;5070947;28;20217;-75
2021/09/07 05:47:58;;;;;;;2.42;2.33;;;13.80;89.20;;;;;;5067851;28;20270;-76
2021/09/07 05:50:24;;;;;;;2.80;2.40;;;13.80;89.00;;;;;;5074348;28;20232;-76
2021/09/07 05:52:50;;;;;;;2.38;2.28;;;13.90;89.40;;;;;;5065045;28;20191;-77
2021/09/07 05:55:16;;;;;;;2.50;2.08;;;13.90;88.90;;;;;;5062736;28;20657;-77
2021/09/07 05:57:43;;;;;;;1.55;1.55;;;14.00;88.80;;;;;;5060349;28;20189;-77
2021/09/07 06:00:10;;;;;;;2.25;2.15;;;14.10;88.70;;;;;;5060790;28;20627;-77
2021/09/07 06:02:36;;;;;;;2.42;2.17;;;14.10;88.40;;;;;;5061336;28;20269;-77
2021/09/07 06:05:03;;;;;;;2.22;2.05;;;14.20;88.10;;;;;;5063092;28;20183;-75
2021/09/07 06:07:29;;;;;;;6.15;2.20;;;14.30;88.30;;;;;;5066924;28;20189;-75
2021/09/07 06:09:55;;;;;;;4.93;2.35;;;14.30;88.00;;;;;;5061505;28;20272;-76
2021/09/07 06:12:21;;;;;;;3.58;2.47;;;14.30;88.20;;;;;;5069680;28;20178;-77
2021/09/07 06:14:46;;;;;;;2.92;2.72;;;14.40;88.10;;;;;;5069049;28;20646;-74
2021/09/07 06:17:12;;;;;;;2.47;2.28;;;14.50;87.90;;;;;;5065454;28;20214;-77
2021/09/07 06:19:38;;;;;;;2.67;2.05;;;14.50;87.60;;;;;;5070255;28;20260;-74
2021/09/07 06:22:04;;;;;;;3.88;2.50;;;14.60;87.50;;;;;;5066937;28;20198;-76
2021/09/07 06:24:30;;;;;;;2.75;2.55;;;14.70;87.60;;;;;;5068614;28;20252;-77
2021/09/07 06:26:55;;;;;;;3.28;2.05;;;14.70;87.60;;;;;;5067595;28;20183;-77
2021/09/07 06:29:21;;;;;;;2.30;2.20;;;14.80;87.40;;;;;;5072216;28;20182;-76
2021/09/07 06:31:47;;;;;;;3.80;2.10;;;14.80;86.90;;;;;;5071440;28;20634;-76
2021/09/07 06:34:12;;;;;;;2.97;2.78;;;14.90;86.80;;;;;;5075046;28;20218;-76
2021/09/07 06:36:38;;;;;;;1.77;1.77;;;14.90;86.70;;;;;;5070491;28;20205;-76
2021/09/07 06:39:04;;;;;;;2.20;2.10;;;15.00;86.80;;;;;;5067775;28;20674;-76
2021/09/07 06:41:29;;;;;;;2.15;2.08;;;15.00;86.80;;;;;;5061645;28;20650;-76
2021/09/07 06:43:55;;;;;;;2.53;2.42;;;15.10;86.90;;;;;;5072134;28;20191;-76
2021/09/07 06:46:21;;;;;;;5.47;2.83;;;15.10;86.50;;;;;;5068982;28;20182;-76
2021/09/07 06:48:46;;;;;;;3.58;3.08;;;15.20;86.30;;;;;;5073250;28;20203;-76
2021/09/07 06:51:12;;;;;;;2.40;2.13;;;15.30;86.20;;;;;;5074498;28;20178;-76
2021/09/07 06:53:38;;;;;;;2.92;2.53;;;15.30;86.10;;;;;;5074570;28;20297;-76
2021/09/07 06:56:04;;;;;;;2.55;2.45;;;15.40;85.80;;;;;;5079076;28;20190;-76
2021/09/07 06:58:30;;;;;;;1.95;1.92;;;15.50;85.70;;;;;;5071813;28;20543;-76
2021/09/07 07:00:56;;;;;;;2.50;2.20;;;15.50;85.40;;;;;;5077811;28;20185;-75
2021/09/07 07:03:21;;;;;;;2.33;2.22;;;15.60;85.10;;;;;;5074759;28;20215;-75
2021/09/07 07:05:47;;;;;;;4.82;2.03;;;15.70;85.40;;;;;;5072580;28;20212;-75
2021/09/07 07:08:13;;;;;;;3.10;2.90;;;15.80;85.20;;;;;;5071426;28;20178;-75
2021/09/07 07:10:38;;;;;;;7.15;2.65;;;15.90;84.40;;;;;;5074106;28;20182;-75
2021/09/07 07:13:06;;;;;;;2.40;1.92;;;16.00;84.30;;;;;;5070318;28;20219;-75
2021/09/07 07:15:32;;;;;;;2.42;2.42;;;16.10;83.90;;;;;;5076899;28;20573;-74
2021/09/07 07:17:58;;;;;;;2.92;2.78;;;16.20;83.80;;;;;;5073085;28;20190;-76
2021/09/07 07:20:24;;;;;;;2.75;2.40;;;16.20;83.10;;;;;;5075276;28;20647;-76
2021/09/07 07:22:50;;;;;;;5.15;2.42;;;16.40;82.90;;;;;;5069408;28;20186;-77
2021/09/07 07:25:16;;;;;;;3.53;2.15;;;16.40;81.70;;;;;;5073413;28;20175;-77
2021/09/07 07:27:42;;;;;;;2.67;2.55;;;16.60;82.40;;;;;;5066620;28;20613;-76
2021/09/07 07:30:09;;;;;;;2.28;2.17;;;16.70;80.90;;;;;;5071614;28;20167;-76
2021/09/07 07:32:35;;;;;;;2.47;2.28;;;16.70;80.70;;;;;;5065476;28;20183;-76
2021/09/07 07:35:02;;;;;;;2.35;2.25;;;16.70;80.90;;;;;;5072796;28;20255;-76
2021/09/07 07:37:28;;;;;;;2.78;2.15;;;16.80;81.00;;;;;;5069952;28;20175;-75
2021/09/07 07:39:53;;;;;;;2.47;2.38;;;16.90;79.80;;;;;;5068627;28;20186;-76
2021/09/07 07:42:19;;;;;;;5.97;2.40;;;17.00;80.60;;;;;;5078657;28;20186;-76
2021/09/07 07:44:47;;;;;;;2.58;2.45;;;17.20;79.80;;;;;;5075829;28;20187;-76
2021/09/07 07:47:13;;;;;;;2.65;2.50;;;17.30;79.50;;;;;;5071950;28;20167;-75
2021/09/07 07:49:38;;;;;;;2.42;2.33;;;17.50;78.60;;;;;;5075147;28;20175;-76
2021/09/07 07:52:04;;;;;;;2.55;2.50;;;17.60;78.70;;;;;;5069542;28;20585;-76
2021/09/07 07:54:30;;;;;;;3.70;2.40;;;17.70;76.70;;;;;;5071157;28;20206;-78
2021/09/07 07:56:56;;;;;;;2.33;2.17;;;17.90;77.20;;;;;;5059720;28;20188;-76
2021/09/07 07:59:21;;;;;;;2.10;2.10;;;18.00;76.60;;;;;;5074617;28;20189;-75
2021/09/07 08:01:47;;;;;;;2.45;2.35;;;18.10;75.70;;;;;;5071679;28;20249;-76
2021/09/07 08:04:13;;;;;;;2.17;2.08;;;18.30;73.30;;;;;;5070872;28;20694;-76
2021/09/07 08:06:40;;;;;;;2.17;2.08;;;18.40;74.30;;;;;;5070802;28;20239;-76
2021/09/07 08:09:06;;;;;;;1.92;1.92;;;18.60;73.80;;;;;;5072829;28;20174;-76
2021/09/07 08:11:32;;;;;;;2.35;2.25;;;18.80;72.20;;;;;;5072440;28;20174;-75
2021/09/07 08:13:58;;;;;;;2.05;2.05;;;18.90;70.40;;;;;;5073496;28;21183;-76
2021/09/07 08:16:26;;;;;;;2.20;2.10;;;19.00;70.90;;;;;;5068208;28;20232;-75
2021/09/07 08:18:52;;;;;;;1.75;1.75;;;19.10;71.40;;;;;;5070423;28;20584;-76
2021/09/07 08:21:18;;;;;;;4.90;2.47;;;19.20;69.60;;;;;;5066458;28;20179;-75
2021/09/07 08:23:44;;;;;;;4.63;2.10;;;19.20;68.20;;;;;;5072377;28;20697;-75
2021/09/07 08:26:10;;;;;;;2.70;2.60;;;19.20;67.50;;;;;;5068565;28;20183;-75
2021/09/07 08:28:35;;;;;;;2.80;2.38;;;19.10;67.90;;;;;;5067960;28;20601;-75
2021/09/07 08:31:01;;;;;;;2.28;2.17;;;19.20;69.60;;;;;;5067932;28;20238;-78
2021/09/07 08:33:26;;;;;;;1.35;1.35;;;19.30;70.30;;;;;;5068889;28;20763;-76
2021/09/07 08:35:52;;;;;;;1.63;1.60;;;19.60;67.10;;;;;;5070016;28;20229;-76
2021/09/07 08:38:18;;;;;;;1.83;1.73;;;19.80;68.00;;;;;;5073001;28;20206;-75
2021/09/07 08:40:45;;;;;;;2.22;1.73;;;19.90;67.90;;;;;;5071047;28;20660;-75
2021/09/07 08:43:11;;;;;;;1.83;1.83;;;20.00;67.10;;;;;;5074925;28;20183;-75
2021/09/07 08:45:39;;;;;;;4.32;1.83;;;20.20;67.30;;;;;;5069830;28;20686;-75
2021/09/07 08:48:05;;;;;;;1.65;1.55;;;20.70;65.60;;;;;;5063700;28;20220;-75
2021/09/07 08:50:31;;;;;;;4.03;1.52;;;21.00;65.90;;;;;;5069467;28;20260;-75
2021/09/07 08:52:59;;;;;;;1.65;1.55;;;21.20;65.20;;;;;;5072336;28;20509;-74
2021/09/07 08:55:25;;;;;;;1.52;1.40;;;21.50;65.40;;;;;;5068931;28;20190;-74
2021/09/07 08:57:51;;;;;;;2.55;1.52;;;22.10;64.50;;;;;;5069281;28;20269;-74
2021/09/07 09:00:28;;;;;;;1.45;1.42;;;22.70;62.80;;;;;;5065320;28;20715;-74
2021/09/07 09:02:54;;;;;;;3.53;0.88;;;23.40;61.90;;;;;;5073553;28;20178;-74
2021/09/07 09:05:29;;;;;;;1.00;1.00;;;23.90;60.20;;;;;;5066281;28;20185;-74
2021/09/07 09:07:56;;;;;;;0.95;0.95;;;24.40;59.60;;;;;;5072045;28;20241;-74
2021/09/07 09:10:24;;;;;;;1.20;1.20;;;25.00;58.50;;;;;;5072971;28;20274;-74
2021/09/07 09:13:03;;;;;;;2.00;1.30;;;25.50;57.40;;;;;;5071814;28;20179;-74
2021/09/07 09:15:29;;;;;;;1.35;1.35;;;26.10;56.10;;;;;;5062060;28;20309;-75
2021/09/07 09:18:12;;;;;;;1.30;1.05;;;26.40;53.80;;;;;;5061378;28;20715;-75
2021/09/07 09:20:39;;;;;;;1.38;1.27;;;26.60;54.10;;;;;;5064384;28;20194;-75
2021/09/07 09:23:08;;;;;;;1.50;1.00;;;26.40;53.90;;;;;;5066070;28;20552;-75
2021/09/07 09:25:41;;;;;;;1.27;1.23;;;26.70;55.40;;;;;;5060949;28;20197;-75
2021/09/07 09:28:13;;;;;;;1.08;1.08;;;27.00;53.00;;;;;;5064408;28;20186;-75
2021/09/07 09:30:46;;;;;;;1.10;1.10;;;27.00;52.00;;;;;;5062141;28;20182;-75
2021/09/07 09:33:15;;;;;;;0.80;0.80;;;26.90;52.20;;;;;;5071374;28;20207;-76
2021/09/07 09:35:46;;;;;;;3.03;1.25;;;26.80;53.10;;;;;;5060258;28;20273;-74
2021/09/07 09:38:12;;;;;;;1.10;1.10;;;26.40;52.40;;;;;;5071551;28;20170;-75
2021/09/07 09:40:37;;;;;;;1.33;1.00;;;26.50;54.40;;;;;;5063790;28;20235;-75
2021/09/07 09:43:25;;;;;;;2.55;0.77;;;26.80;54.30;;;;;;5061686;28;20614;-75
2021/09/07 09:45:51;;;;;;;1.25;0.75;;;27.40;53.10;;;;;;5060061;28;21453;-75
2021/09/07 09:48:26;;;;;;;1.75;0.90;;;28.00;52.50;;;;;;5067509;28;20286;-75
2021/09/07 09:50:55;;;;;;;1.17;1.05;;;28.20;49.10;;;;;;5065508;28;20178;-75
2021/09/07 09:53:21;;;;;;;1.10;0.82;;;27.70;49.80;;;;;;5069772;28;20785;-75
2021/09/07 09:55:49;;;;;;;0.77;0.77;;;27.30;50.70;;;;;;5065520;28;20186;-75
2021/09/07 09:58:17;;;;;;;0.90;0.90;;;27.50;53.00;;;;;;5063895;28;20186;-76
2021/09/07 10:00:45;;;;;;;2.03;0.90;;;28.10;51.20;;;;;;5068144;28;20400;-75
2021/09/07 10:03:12;;;;;;;2.50;1.10;;;28.70;51.30;;;;;;5070966;28;20221;-75
2021/09/07 10:05:42;;;;;;;1.38;1.25;;;29.10;48.70;;;;;;5072216;28;20229;-76
2021/09/07 10:08:11;;;;;;;1.30;1.30;;;29.00;47.60;;;;;;5067510;28;20216;-75
2021/09/07 10:10:40;;;;;;;2.83;1.10;;;28.70;50.10;;;;;;5073865;28;20182;-74
2021/09/07 10:13:09;;;;;;;0.90;0.90;;;28.80;48.30;;;;;;5059481;28;20218;-75
2021/09/07 10:15:44;;;;;;;1.10;1.10;;;28.80;49.00;;;;;;5062906;28;20192;-75
2021/09/07 10:18:55;;;;;;;1.40;1.30;;;29.00;50.70;;;;;;5067764;28;20214;-75
2021/09/07 10:26:15;;;;;;;1.20;1.20;;;30.70;49.70;;;;;;5060696;28;20291;-75
2021/09/07 10:28:45;;;;;;;0.90;0.90;;;31.40;45.70;;;;;;5069477;28;20609;-75
2021/09/07 10:31:22;;;;;;;0.98;0.98;;;32.00;47.30;;;;;;5068598;28;20206;-75
2021/09/07 10:33:51;;;;;;;0.93;0.82;;;32.50;44.50;;;;;;5072693;28;20604;-74
2021/09/07 10:36:23;;;;;;;0.82;0.82;;;32.40;45.40;;;;;;5060337;28;20291;-74
2021/09/07 10:39:01;;;;;;;1.38;0.80;;;32.20;45.40;;;;;;5068869;28;20228;-73
2021/09/07 10:41:32;;;;;;;1.00;1.00;;;31.70;45.90;;;;;;5068006;28;20194;-74
2021/09/07 10:43:58;;;;;;;1.73;1.20;;;31.70;46.10;;;;;;5069741;28;20334;-73
2021/09/07 10:46:56;;;;;;;1.73;1.15;;;31.70;47.90;;;;;;5070745;28;20182;-74
2021/09/07 10:49:26;;;;;;;0.95;0.95;;;32.00;45.90;;;;;;5069134;28;20875;-74
2021/09/07 10:52:11;;;;;;;2.78;1.00;;;32.10;44.30;;;;;;5062308;28;20757;-74
2021/09/07 10:54:53;;;;;;;0.80;0.80;;;31.80;45.30;;;;;;5065889;28;20708;-74
2021/09/07 10:57:38;;;;;;;2.05;0.80;;;32.10;45.90;;;;;;5068445;28;20182;-74
2021/09/07 11:00:26;;;;;;;0.95;0.90;;;32.50;43.20;;;;;;5066134;28;20747;-74
2021/09/07 11:03:01;;;;;;;0.90;0.90;;;32.40;43.20;;;;;;5062333;28;20894;-73
2021/09/07 11:05:27;;;;;;;1.00;1.00;;;32.40;44.80;;;;;;5062714;28;20174;-75
2021/09/07 11:08:10;;;;;;;2.50;1.15;;;32.70;44.90;;;;;;5064695;28;20760;-75
2021/09/07 11:10:38;;;;;;;1.08;1.00;;;33.10;45.10;;;;;;5067840;28;20174;-75
2021/09/07 11:13:18;;;;;;;1.02;1.00;;;33.20;44.90;;;;;;5063906;28;20215;-75
2021/09/07 11:15:45;;;;;;;1.67;0.90;;;33.40;45.10;;;;;;5070756;28;20183;-74
2021/09/07 11:18:12;;;;;;;1.00;1.00;;;33.70;44.80;;;;;;5068869;28;20754;-75
2021/09/07 11:20:44;;;;;;;2.80;0.88;;;33.60;43.50;;;;;;5068607;28;20178;-74
2021/09/07 11:23:31;;;;;;;0.90;0.90;;;33.50;43.80;;;;;;5062949;28;20310;-74
2021/09/07 11:26:03;;;;;;;0.80;0.80;;;33.70;41.60;;;;;;5075446;28;20220;-73
2021/09/07 11:28:30;;;;;;;0.80;0.80;;;33.40;44.20;;;;;;5073458;28;20174;-74
2021/09/07 11:30:57;;;;;;;0.77;0.77;;;33.30;43.90;;;;;;5063941;28;20338;-73
2021/09/07 11:33:23;;;;;;;0.75;0.75;;;33.30;43.80;;;;;;5068476;28;20215;-74
2021/09/07 11:35:52;;;;;;;4.40;0.90;;;33.30;44.40;;;;;;5070057;28;20694;-74
2021/09/07 11:38:20;;;;;;;1.05;0.85;;;33.50;44.30;;;;;;5069492;28;20179;-75
2021/09/07 11:40:47;;;;;;;0.80;0.80;;;33.40;45.00;;;;;;5071568;28;20182;-74
2021/09/07 11:43:27;;;;;;;0.80;0.80;;;33.70;44.20;;;;;;5069087;28;20215;-74
2021/09/07 11:46:09;;;;;;;0.93;0.93;;;33.40;43.20;;;;;;5063934;28;20264;-74
2021/09/07 11:48:36;;;;;;;0.70;0.70;;;33.50;43.80;;;;;;5063749;28;20189;-74
2021/09/07 11:51:03;;;;;;;1.98;1.00;;;33.90;44.00;;;;;;5074196;28;20174;-75
2021/09/07 11:53:29;;;;;;;4.40;1.33;;;34.20;44.90;;;;;;5068322;28;20210;-74
2021/09/07 11:55:56;;;;;;;1.27;0.90;;;34.40;44.10;;;;;;5075370;28;20187;-73
2021/09/07 11:58:33;;;;;;;0.80;0.80;;;34.40;42.40;;;;;;5068675;28;20209;-74
2021/09/07 12:01:09;;;;;;;2.25;0.70;;;34.10;43.30;;;;;;5068461;28;20189;-74
2021/09/07 12:03:42;;;;;;;1.33;0.60;;;34.30;43.30;;;;;;5069029;28;20178;-74
2021/09/07 12:06:11;;;;;;;1.00;0.90;;;34.50;43.50;;;;;;5074008;28;20174;-75
2021/09/07 12:08:48;;;;;;;1.38;0.77;;;34.80;43.40;;;;;;5069349;28;20187;-74
2021/09/07 12:11:27;;;;;;;0.90;0.90;;;35.20;42.00;;;;;;5075690;28;20720;-75
2021/09/07 12:14:02;;;;;;;0.88;0.88;;;35.40;42.70;;;;;;5072975;28;20221;-74
2021/09/07 12:16:27;;;;;;;1.95;0.70;;;35.30;40.60;;;;;;5063082;28;20190;-74
2021/09/07 12:18:53;;;;;;;0.77;0.77;;;35.20;42.30;;;;;;5064729;28;20181;-73
2021/09/07 12:21:26;;;;;;;0.73;0.73;;;35.50;41.50;;;;;;5071789;28;20190;-72
2021/09/07 12:23:54;;;;;;;3.50;0.80;;;35.40;40.60;;;;;;5064462;28;20214;-74
2021/09/07 12:26:39;;;;;;;1.33;0.95;;;35.40;43.10;;;;;;5074496;28;20178;-75
2021/09/07 12:29:16;;;;;;;0.80;0.80;;;35.50;40.60;;;;;;5074289;28;20182;-74
2021/09/07 12:33:54;;;;;;;2.20;0.90;;;33.90;43.30;;;;;;5065601;28;20640;-74
2021/09/07 12:36:23;;;;;;;0.70;0.70;;;33.80;43.50;;;;;;5061641;28;20182;-73
2021/09/07 12:38:50;;;;;;;2.13;0.80;;;34.20;43.30;;;;;;5066194;28;20186;-74
2021/09/07 12:41:25;;;;;;;1.30;0.63;;;34.20;43.30;;;;;;5067251;28;20261;-73
2021/09/07 12:43:53;;;;;;;1.65;0.90;;;34.60;42.30;;;;;;5066634;28;20182;-72
2021/09/07 12:46:21;;;;;;;0.70;0.70;;;34.70;43.30;;;;;;5068199;28;20182;-73
2021/09/07 12:48:48;;;;;;;0.57;0.57;;;34.90;42.00;;;;;;5070247;28;20190;-73
2021/09/07 12:51:17;;;;;;;0.50;0.50;;;35.10;42.40;;;;;;5066161;28;20568;-72
2021/09/07 12:53:44;;;;;;;0.60;0.60;;;35.40;42.60;;;;;;5067628;28;20229;-72
2021/09/07 12:56:21;;;;;;;2.97;0.60;;;35.60;41.60;;;;;;5067654;28;20179;-72
2021/09/07 12:58:52;;;;;;;5.38;0.95;;;35.80;41.30;;;;;;5068620;28;20190;-73